地図

経路データ

SID SEASON NUMBER BASIN SUBBASIN NAME ISO_TIME NATURE LAT LON WMO_WIND WMO_PRES WMO_AGENCY TRACK_TYPE DIST2LAND LANDFALL IFLAG USA_AGENCY USA_ATCF_ID USA_LAT USA_LON USA_RECORD USA_STATUS USA_WIND USA_PRES USA_SSHS USA_R34_NE USA_R34_SE USA_R34_SW USA_R34_NW USA_R50_NE USA_R50_SE USA_R50_SW USA_R50_NW USA_R64_NE USA_R64_SE USA_R64_SW USA_R64_NW USA_POCI USA_ROCI USA_RMW USA_EYE TOKYO_LAT TOKYO_LON TOKYO_GRADE TOKYO_WIND TOKYO_PRES TOKYO_R50_DIR TOKYO_R50_LONG TOKYO_R50_SHORT TOKYO_R30_DIR TOKYO_R30_LONG TOKYO_R30_SHORT TOKYO_LAND CMA_LAT CMA_LON CMA_CAT CMA_WIND CMA_PRES HKO_LAT HKO_LON HKO_CAT HKO_WIND HKO_PRES NEWDELHI_LAT NEWDELHI_LON NEWDELHI_GRADE NEWDELHI_WIND NEWDELHI_PRES NEWDELHI_CI NEWDELHI_DP NEWDELHI_POCI REUNION_LAT REUNION_LON REUNION_TYPE REUNION_WIND REUNION_PRES REUNION_TNUM REUNION_CI REUNION_RMW REUNION_R34_NE REUNION_R34_SE REUNION_R34_SW REUNION_R34_NW REUNION_R50_NE REUNION_R50_SE REUNION_R50_SW REUNION_R50_NW REUNION_R64_NE REUNION_R64_SE REUNION_R64_SW REUNION_R64_NW BOM_LAT BOM_LON BOM_TYPE BOM_WIND BOM_PRES BOM_TNUM BOM_CI BOM_RMW BOM_R34_NE BOM_R34_SE BOM_R34_SW BOM_R34_NW BOM_R50_NE BOM_R50_SE BOM_R50_SW BOM_R50_NW BOM_R64_NE BOM_R64_SE BOM_R64_SW BOM_R64_NW BOM_ROCI BOM_POCI BOM_EYE BOM_POS_METHOD BOM_PRES_METHOD NADI_LAT NADI_LON NADI_CAT NADI_WIND NADI_PRES WELLINGTON_LAT WELLINGTON_LON WELLINGTON_WIND WELLINGTON_PRES DS824_LAT DS824_LON DS824_STAGE DS824_WIND DS824_PRES TD9636_LAT TD9636_LON TD9636_STAGE TD9636_WIND TD9636_PRES TD9635_LAT TD9635_LON TD9635_WIND TD9635_PRES TD9635_ROCI NEUMANN_LAT NEUMANN_LON NEUMANN_CLASS NEUMANN_WIND NEUMANN_PRES MLC_LAT MLC_LON MLC_CLASS MLC_WIND MLC_PRES USA_GUST BOM_GUST BOM_GUST_PER REUNION_GUST REUNION_GUST_PER USA_SEAHGT USA_SEARAD_NE USA_SEARAD_SE USA_SEARAD_SW USA_SEARAD_NW STORM_SPEED STORM_DIR
1909318N12134 1909 65 WP MM NOT_NAMED 1909-11-13 16:00:00 NR 12.2000 133.500 main 849 733 __________O___ -1 12.2000 133.500 2 33 274
1909318N12134 1909 65 WP MM NOT_NAMED 1909-11-13 18:00:00 NR 12.2693 132.383 main 733 566 __________P___ -1 12.2693 132.383 2 32 274
1909318N12134 1909 65 WP MM NOT_NAMED 1909-11-13 21:00:00 NR 12.3675 130.756 main 566 414 __________P___ -1 12.3675 130.756 2 31 274
1909318N12134 1909 65 WP MM NOT_NAMED 1909-11-14 00:00:00 NR 12.4635 129.258 main 414 275 __________P___ -1 12.4635 129.258 2 27 274
1909318N12134 1909 65 WP MM NOT_NAMED 1909-11-14 03:00:00 NR 12.5641 127.969 main 275 243 __________P___ -1 12.5641 127.969 2 24 275
1909318N12134 1909 65 WP MM NOT_NAMED 1909-11-14 04:00:00 NR 12.6000 127.600 main 232 172 __________O___ -1 12.6000 127.600 7 20 277
1909318N12134 1909 65 WP MM NOT_NAMED 1909-11-14 06:00:00 NR 12.6767 126.960 main 172 101 __________P___ -1 12.6767 126.960 7 17 278
1909318N12134 1909 65 WP MM NOT_NAMED 1909-11-14 09:00:00 NR 12.8013 126.201 main 101 62 __________P___ -1 12.8013 126.201 7 13 281
1909318N12134 1909 65 WP MM NOT_NAMED 1909-11-14 12:00:00 NR 12.9314 125.603 main 62 55 __________P___ -1 12.9314 125.603 7 11 283
1909318N12134 1909 65 WP MM NOT_NAMED 1909-11-14 15:00:00 NR 13.0593 125.076 main 67 67 __________P___ -1 13.0593 125.076 7 11 284
1909318N12134 1909 65 WP MM NOT_NAMED 1909-11-14 16:00:00 NR 13.1000 124.900 main 67 46 __________O___ -1 13.1000 124.900 4 12 281
1909318N12134 1909 65 WP MM NOT_NAMED 1909-11-14 18:00:00 NR 13.1722 124.462 main 46 0 __________P___ -1 13.1722 124.462 4 13 279
1909318N12134 1909 65 WP MM NOT_NAMED 1909-11-14 21:00:00 NR 13.2744 123.823 main 0 0 __________P___ -1 13.2744 123.823 4 12 279
1909318N12134 1909 65 WP MM NOT_NAMED 1909-11-15 00:00:00 NR 13.3720 123.220 main 0 0 __________P___ -1 13.3720 123.220 4 11 280
1909318N12134 1909 65 WP MM NOT_NAMED 1909-11-15 03:00:00 NR 13.4679 122.669 main 10 0 __________P___ -1 13.4679 122.669 4 11 280
1909318N12134 1909 65 WP MM NOT_NAMED 1909-11-15 04:00:00 NR 13.5000 122.500 main 0 0 __________O___ -1 13.5000 122.500 4 10 281
1909318N12134 1909 65 WP MM NOT_NAMED 1909-11-15 06:00:00 NR 13.5609 122.185 main 10 10 __________P___ -1 13.5609 122.185 4 9 282
1909318N12134 1909 65 WP MM NOT_NAMED 1909-11-15 09:00:00 NR 13.6526 121.763 main 31 0 __________P___ -1 13.6526 121.763 4 8 284
1909318N12134 1909 65 WP MM NOT_NAMED 1909-11-15 12:00:00 NR 13.7502 121.382 main 0 0 __________P___ -1 13.7502 121.382 4 8 286
1909318N12134 1909 65 WP MM NOT_NAMED 1909-11-15 15:00:00 NR 13.8598 121.020 main 0 0 __________P___ -1 13.8598 121.020 4 7 288
1909318N12134 1909 65 WP MM NOT_NAMED 1909-11-15 16:00:00 NR 13.9000 120.900 main 0 0 __________O___ -1 13.9000 120.900 4 8 290
1909318N12134 1909 65 WP MM NOT_NAMED 1909-11-15 18:00:00 NR 13.9938 120.631 main 0 0 __________P___ -1 13.9938 120.631 4 8 291
1909318N12134 1909 65 WP MM NOT_NAMED 1909-11-15 21:00:00 NR 14.1473 120.234 main 43 39 __________P___ -1 14.1473 120.234 4 8 292
1909318N12134 1909 65 WP MM NOT_NAMED 1909-11-16 00:00:00 NR 14.3050 119.855 main 55 62 __________P___ -1 14.3050 119.855 4 8 294
1909318N12134 1909 65 WP MM NOT_NAMED 1909-11-16 03:00:00 NR 14.4543 119.507 main 72 72 __________P___ -1 14.4543 119.507 4 7 294
1909318N12134 1909 65 WP MM NOT_NAMED 1909-11-16 04:00:00 NR 14.5000 119.400 main 82 82 __________O___ -1 14.5000 119.400 4 6 292
1909318N12134 1909 65 WP MM NOT_NAMED 1909-11-16 06:00:00 NR 14.5700 119.207 main 99 99 __________P___ -1 14.5700 119.207 4 6 290
1909318N12134 1909 65 WP MM NOT_NAMED 1909-11-16 09:00:00 NR 14.6623 118.950 main 129 129 __________P___ -1 14.6623 118.950 4 5 291
1909318N12134 1909 65 WP MM NOT_NAMED 1909-11-16 12:00:00 NR 14.7535 118.714 main 145 145 __________P___ -1 14.7535 118.714 4 5 293
1909318N12134 1909 65 WP MM NOT_NAMED 1909-11-16 15:00:00 NR 14.8590 118.480 main 160 160 __________P___ -1 14.8590 118.480 4 5 296
1909318N12134 1909 65 WP MM NOT_NAMED 1909-11-16 16:00:00 NR 14.9000 118.400 main 170 170 __________O___ -1 14.9000 118.400 4 6 303
1909318N12134 1909 65 WP MM NOT_NAMED 1909-11-16 18:00:00 NR 15.0151 118.236 main 187 185 __________P___ -1 15.0151 118.236 4 6 307
1909318N12134 1909 65 WP MM NOT_NAMED 1909-11-16 21:00:00 NR 15.2071 117.983 main 202 202 __________P___ -1 15.2071 117.983 4 6 307
1909318N12134 1909 65 WP MM NOT_NAMED 1909-11-17 00:00:00 NR 15.3974 117.712 main 224 224 __________P___ -1 15.3974 117.712 4 7 302
1909318N12134 1909 65 WP MM NOT_NAMED 1909-11-17 03:00:00 NR 15.5580 117.410 main 250 250 __________P___ -1 15.5580 117.410 4 7 297
1909318N12134 1909 65 WP MM NOT_NAMED 1909-11-17 04:00:00 NR 15.6000 117.300 main 260 260 __________O___ -1 15.6000 117.300 4 7 284
1909318N12134 1909 65 WP MM NOT_NAMED 1909-11-17 06:00:00 NR 15.6458 117.056 main 281 290 __________P___ -1 15.6458 117.056 4 7 277
1909318N12134 1909 65 WP MM NOT_NAMED 1909-11-17 09:00:00 NR 15.6765 116.659 main 322 333 __________P___ -1 15.6765 116.659 4 8 273
1909318N12134 1909 65 WP MM NOT_NAMED 1909-11-17 12:00:00 NR 15.6836 116.244 main 376 376 __________P___ -1 15.6836 116.244 4 8 271
1909318N12134 1909 65 WP MM NOT_NAMED 1909-11-17 15:00:00 NR 15.6924 115.833 main 418 418 __________P___ -1 15.6924 115.833 4 8 272
1909318N12134 1909 65 WP MM NOT_NAMED 1909-11-17 16:00:00 NR 15.7000 115.700 main 429 429 __________O___ -1 15.7000 115.700 4 8 276
1909318N12134 1909 65 WP MM NOT_NAMED 1909-11-17 18:00:00 NR 15.7308 115.419 main 461 461 __________P___ -1 15.7308 115.419 4 8 278
1909318N12134 1909 65 WP MM NOT_NAMED 1909-11-17 21:00:00 NR 15.7895 115.008 main 503 503 __________P___ -1 15.7895 115.008 4 8 280
1909318N12134 1909 65 WP MM NOT_NAMED 1909-11-18 00:00:00 NR 15.8657 114.645 main 542 519 __________P___ -1 15.8657 114.645 4 6 286
1909318N12134 1909 65 WP MM NOT_NAMED 1909-11-18 03:00:00 NR 15.9626 114.367 main 519 510 __________P___ -1 15.9626 114.367 4 5 292
1909318N12134 1909 65 WP MM NOT_NAMED 1909-11-18 04:00:00 NR 16.0000 114.300 main 510 495 __________O___ -1 16.0000 114.300 4 4 308
1909318N12134 1909 65 WP MM NOT_NAMED 1909-11-18 06:00:00 NR 16.0826 114.209 main 495 488 __________P___ -1 16.0826 114.209 4 3 329
1909318N12134 1909 65 WP MM NOT_NAMED 1909-11-18 09:00:00 NR 16.2257 114.162 main 488 475 __________P___ -1 16.2257 114.162 4 3 357
1909318N12134 1909 65 WP MM NOT_NAMED 1909-11-18 12:00:00 NR 16.3834 114.192 main 475 469 __________P___ -1 16.3834 114.192 4 3 19
1909318N12134 1909 65 WP MM NOT_NAMED 1909-11-18 15:00:00 NR 16.5462 114.269 main 477 471 __________P___ -1 16.5462 114.269 4 4 26
1909318N12134 1909 65 WP MM NOT_NAMED 1909-11-18 16:00:00 NR 16.6000 114.300 main 471 466 __________O___ -1 16.6000 114.300 4 3 20
1909318N12134 1909 65 WP MM NOT_NAMED 1909-11-18 18:00:00 NR 16.7078 114.333 main 466 464 __________P___ -1 16.7078 114.333 4 3 21
1909318N12134 1909 65 WP MM NOT_NAMED 1909-11-18 21:00:00 NR 16.8698 114.408 main 464 464 __________P___ -1 16.8698 114.408 4 4 29
1909318N12134 1909 65 WP MM NOT_NAMED 1909-11-19 00:00:00 NR 17.0236 114.513 main 468 463 __________P___ -1 17.0236 114.513 4 4 39
1909318N12134 1909 65 WP MM NOT_NAMED 1909-11-19 03:00:00 NR 17.1600 114.648 main 465 473 __________P___ -1 17.1600 114.648 4 4 45
1909318N12134 1909 65 WP MM NOT_NAMED 1909-11-19 04:00:00 NR 17.2000 114.700 main 473 473 __________O___ -1 17.2000 114.700 2 4 56
1909318N12134 1909 65 WP MM NOT_NAMED 1909-11-19 06:00:00 NR 17.2645 114.811 main 476 476 __________P___ -1 17.2645 114.811 2 4 64
1909318N12134 1909 65 WP MM NOT_NAMED 1909-11-19 09:00:00 NR 17.3424 115.002 main 494 488 __________P___ -1 17.3424 115.002 2 4 69
1909318N12134 1909 65 WP MM NOT_NAMED 1909-11-19 12:00:00 NR 17.4084 115.212 main 504 487 __________P___ -1 17.4084 115.212 2 4 72
1909318N12134 1909 65 WP MM NOT_NAMED 1909-11-19 15:00:00 NR 17.4753 115.428 main 487 476 __________P___ -1 17.4753 115.428 2 4 71
1909318N12134 1909 65 WP MM NOT_NAMED 1909-11-19 16:00:00 NR 17.5000 115.500 main 476 466 __________O___ -1 17.5000 115.500 2 4 69
1909318N12134 1909 65 WP MM NOT_NAMED 1909-11-19 18:00:00 NR 17.5557 115.644 main 469 439 __________P___ -1 17.5557 115.644 2 4 67
1909318N12134 1909 65 WP MM NOT_NAMED 1909-11-19 21:00:00 NR 17.6455 115.860 main 439 423 __________P___ -1 17.6455 115.860 2 4 65
1909318N12134 1909 65 WP MM NOT_NAMED 1909-11-20 00:00:00 NR 17.7455 116.065 main 423 417 __________P___ -1 17.7455 116.065 2 4 60
1909318N12134 1909 65 WP MM NOT_NAMED 1909-11-20 03:00:00 NR 17.8588 116.247 main 422 412 __________P___ -1 17.8588 116.247 2 4 55
1909318N12134 1909 65 WP MM NOT_NAMED 1909-11-20 04:00:00 NR 17.9000 116.300 main 412 403 __________O___ -1 17.9000 116.300 2 4 45
1909318N12134 1909 65 WP MM NOT_NAMED 1909-11-20 06:00:00 NR 17.9858 116.384 main 408 404 __________P___ -1 17.9858 116.384 2 3 38
1909318N12134 1909 65 WP MM NOT_NAMED 1909-11-20 09:00:00 NR 18.1273 116.486 main 404 397 __________P___ -1 18.1273 116.486 2 3 31
1909318N12134 1909 65 WP MM NOT_NAMED 1909-11-20 12:00:00 NR 18.2811 116.573 main 399 391 __________P___ -1 18.2811 116.573 2 4 28
1909318N12134 1909 65 WP MM NOT_NAMED 1909-11-20 15:00:00 NR 18.4441 116.665 main 391 393 __________P___ -1 18.4441 116.665 2 4 29
1909318N12134 1909 65 WP MM NOT_NAMED 1909-11-20 16:00:00 NR 18.5000 116.700 main 393 386 __________O___ -1 18.5000 116.700 2 4 36
1909318N12134 1909 65 WP MM NOT_NAMED 1909-11-20 18:00:00 NR 18.6163 116.796 main 386 373 __________P___ -1 18.6163 116.796 2 5 39
1909318N12134 1909 65 WP MM NOT_NAMED 1909-11-20 21:00:00 NR 18.7970 116.954 main 373 367 __________P___ -1 18.7970 116.954 2 5 40
1909318N12134 1909 65 WP MM NOT_NAMED 1909-11-21 00:00:00 NR 18.9771 117.113 main 372 355 __________P___ -1 18.9771 117.113 2 5 39
1909318N12134 1909 65 WP MM NOT_NAMED 1909-11-21 03:00:00 NR 19.1472 117.258 main 355 358 __________P___ -1 19.1472 117.258 2 4 39
1909318N12134 1909 65 WP MM NOT_NAMED 1909-11-21 04:00:00 NR 19.2000 117.300 main 358 351 __________O___ -1 19.2000 117.300 2 4 34
1909318N12134 1909 65 WP MM NOT_NAMED 1909-11-21 06:00:00 NR 19.2947 117.362 main 351 351 __________P___ -1 19.2947 117.362 2 3 30
1909318N12134 1909 65 WP MM NOT_NAMED 1909-11-21 09:00:00 NR 19.4241 117.436 main 354 348 __________P___ -1 19.4241 117.436 2 3 28
1909318N12134 1909 65 WP MM NOT_NAMED 1909-11-21 12:00:00 NR 19.5441 117.501 main 348 342 __________P___ -1 19.5441 117.501 2 3 29
1909318N12134 1909 65 WP MM NOT_NAMED 1909-11-21 15:00:00 NR 19.6608 117.572 main 347 347 __________P___ -1 19.6608 117.572 2 3 33
1909318N12134 1909 65 WP MM NOT_NAMED 1909-11-21 16:00:00 NR 19.7000 117.600 main 347 342 __________O___ -1 19.7000 117.600 2 3 36
1909318N12134 1909 65 WP MM NOT_NAMED 1909-11-21 18:00:00 NR 19.7800 117.665 main 342 338 __________P___ -1 19.7800 117.665 2 3 39
1909318N12134 1909 65 WP MM NOT_NAMED 1909-11-21 21:00:00 NR 19.9034 117.780 main 338 335 __________P___ -1 19.9034 117.780 2 3 43
1909318N12134 1909 65 WP MM NOT_NAMED 1909-11-22 00:00:00 NR 20.0295 117.911 main 335 330 __________P___ -1 20.0295 117.911 2 4 45
1909318N12134 1909 65 WP MM NOT_NAMED 1909-11-22 03:00:00 NR 20.1573 118.052 main 330 330 __________P___ -1 20.1573 118.052 2 4 46
1909318N12134 1909 65 WP MM NOT_NAMED 1909-11-22 04:00:00 NR 20.2000 118.100 main 330 __________O___ -1 20.2000 118.100 2 4 40

デジタル台風データ・検索

IBTrACS Databaseについて

本データベースは、米国NOAAが公開する1842年以降の世界の熱帯低気圧のベストトラックデータアーカイブInternational Best Track Archive for Climate Stewardship (IBTrACS)を、ウェブで閲覧しやすい形式に変換したものです。

最終更新日:2021-12-01